Great Falls/Malmstrom AFB, Montana
Current Conditions -  °F | °C
As of 6:53 AM on Friday 19 Dec 2014 (Local Time) from KGTF Reporting Station
Clear Clear  
Wind Chill: 25°   Ceiling: Unl
Heat Index: 33°   Visibility: 10mi
Dew Point: 25°   Wind: 10mph
Humidity: 72%   Direction: 200°SSW
Pressure: 29.86"   Gusts: NA
Location:  47.47°N, 111.32°W
Report Text: KGTF 191353Z 20009KT 10SM CLR 01/M04 A2986 RMK AO2 SLP146 T00061039
Loading
Personal Weather Stations






























Interactive Weather Map New forecast layout! Learn more

10-Day Weather Forecast

Advertisements
Track Severe Weather on mobile